Norwegian Sky — C6PZ8 — position and weather

sailwx.info

Track history (hours):
 
Tides and Currents Weather Stations Pressure Air Temp Water Temp Dewpoint Dewpoint Depression Visibility Wind Speed Wind Dir Waves Ship Positions

Norwegian Sky (Norway)

Operator: Norwegian Cruise Line

Last reported at 2018-Nov-13 10:00 UTC. Time now 2018-Nov-14 02:55 UTC.
Position N 23°18' W 082°12'.

Length 259 m; draft 8 m.

Type: Ship. MMSI: 308865000.

Wind from 150 at 17 knots

Barometer 1016.0 mb
Air temperature 25.0 ° C
Visibility: greater than 27.0 NM
Dewpoint 22.2 ° C
Water temperature 28.0 ° C

Date/timePositionNaut miles runAvg speedWind from/ knotsBaromVisibWave heightAir tempDewpointWater temp
2018-Nov-13 10:00N 23°18' W 082°12'15817.5 150 / 171016.027.0 25.022.228.0
2018-Nov-13 01:00N 25°00' W 080°00'96 4.0 120 / 251016.0 5.4 23.0
2018-Nov-12 01:00N 26°06' W 078°42'33 2.1 040 / 261018.0 5.4 25.0
2018-Nov-11 09:00N 26°12' W 078°06'61 7.6 070 / 171016.027.0 25.022.228.0
2018-Nov-11 01:00N 25°24' W 077°24'21 1.3 010 / 151017.0 5.4 26.0
2018-Nov-10 09:00N 25°42' W 077°36'9716.2 090 / 61015.027.0 25.022.228.0
2018-Nov-10 02:58N 26°05' W 079°21'613.6
2018-Nov-10 02:32N 26°01' W 079°26'510.5
2018-Nov-10 02:02N 25°57' W 079°30'510.3
2018-Nov-10 01:32N 25°54' W 079°34'510.0
2018-Nov-10 01:02N 25°50' W 079°38'611.1
2018-Nov-10 00:32N 25°46' W 079°43'611.1
2018-Nov-10 00:02N 25°46' W 079°49'714.6
2018-Nov-09 23:32N 25°46' W 079°57'714.0
2018-Nov-09 23:02N 25°46' W 080°05'5 9.3
2018-Nov-09 22:32N 25°47' W 080°10'0 0.2
2018-Nov-09 22:00N 25°47' W 080°10'0 0.0
2018-Nov-09 21:32N 25°47' W 080°10'0 0.0
2018-Nov-09 20:59N 25°47' W 080°10'0 0.0
2018-Nov-09 20:32N 25°47' W 080°10'0 0.0
2018-Nov-09 20:02N 25°47' W 080°10'0 0.0
2018-Nov-09 19:28N 25°47' W 080°10'0 0.0
2018-Nov-09 18:58N 25°47' W 080°10'0 0.0
2018-Nov-09 18:25N 25°47' W 080°10'0 0.0
2018-Nov-09 18:01N 25°47' W 080°10'0 0.0
2018-Nov-09 17:31N 25°47' W 080°10'0 0.0
2018-Nov-09 17:00N 25°47' W 080°10'0 0.0
2018-Nov-09 16:30N 25°47' W 080°10'0 0.0
2018-Nov-09 16:00N 25°47' W 080°10'0 0.0
2018-Nov-09 15:30N 25°47' W 080°10'0 0.0
2018-Nov-09 15:00N 25°47' W 080°10'0 0.0
2018-Nov-09 14:26N 25°47' W 080°10'0 0.0
2018-Nov-09 13:59N 25°47' W 080°10'0 0.0
2018-Nov-09 13:32N 25°47' W 080°10'0 0.0
2018-Nov-09 13:02N 25°47' W 080°10'0 0.0
2018-Nov-09 12:28N 25°47' W 080°10'0 0.0
2018-Nov-09 11:55N 25°47' W 080°10'0 0.0
2018-Nov-09 11:22N 25°47' W 080°10'0 0.0
2018-Nov-09 11:01N 25°47' W 080°10'0 1.0
2018-Nov-09 10:32N 25°46' W 080°09'5 9.5
2018-Nov-09 10:03N 25°46' W 080°04'5 9.7
2018-Nov-09 09:32N 25°47' W 079°59'4 8.9
2018-Nov-09 09:03N 25°47' W 079°54'4 8.8
2018-Nov-09 08:33N 25°48' W 079°49'4 8.5
2018-Nov-09 08:03N 25°48' W 079°44'4 8.1
2018-Nov-09 07:33N 25°49' W 079°40'4 8.4
2018-Nov-09 07:02N 25°52' W 079°37'4 8.5
2018-Nov-09 06:32N 25°55' W 079°34'4 8.5
2018-Nov-09 06:02N 25°58' W 079°30'4 8.4
2018-Nov-09 05:32N 26°01' W 079°27'4 8.5
2018-Nov-09 05:02N 26°04' W 079°24'4 8.6
2018-Nov-09 04:32N 26°07' W 079°20'4 8.4
2018-Nov-09 04:02N 26°10' W 079°16'4 7.5
2018-Nov-09 03:32N 26°11' W 079°13'2811.1
2018-Nov-09 01:00N 26°06' W 078°42'4511.2 050 / 81016.0 5.4 25.0
2018-Nov-08 21:00N 25°54' W 077°54'38 4.8 080 / 91014.027.0 26.023.2
2018-Nov-08 13:00N 26°00' W 078°36'4019.4 080 / 181016.0 5.4 26.0
2018-Nov-08 10:57N 26°08' W 079°19'920.8
2018-Nov-08 10:32N 26°01' W 079°25'1121.4
2018-Nov-08 10:02N 25°52' W 079°31'1121.5
2018-Nov-08 09:32N 25°42' W 079°35'1122.2
2018-Nov-08 09:02N 25°31' W 079°36'7142.1
2018-Nov-08 09:00N 25°24' W 079°36'   080 / 181014.027.0 25.022.228.0
2018-Nov-06 00:32N 25°16' W 080°01'1817.6
2018-Nov-05 23:30N 25°34' W 080°02'817.2
2018-Nov-05 23:03N 25°41' W 080°03'116.9
2018-Nov-05 23:01N 25°42' W 080°03'5 9.2
2018-Nov-05 22:31N 25°45' W 080°07'3 6.8
2018-Nov-05 22:03N 25°47' W 080°10'0 1.0
2018-Nov-05 22:01N 25°47' W 080°10'0 0.1
2018-Nov-05 21:26N 25°47' W 080°10'0 0.0
2018-Nov-05 21:02N 25°47' W 080°10'0 0.0
2018-Nov-05 20:59N 25°47' W 080°10'0 0.0
2018-Nov-05 20:28N 25°47' W 080°10'0 0.0
2018-Nov-05 20:01N 25°47' W 080°10'0 0.0
2018-Nov-05 19:58N 25°47' W 080°10'0 0.0
2018-Nov-05 19:28N 25°47' W 080°10'0 0.0
2018-Nov-05 18:58N 25°47' W 080°10'0 0.0
2018-Nov-05 18:22N 25°47' W 080°10'0 0.0
2018-Nov-05 18:03N 25°47' W 080°10'0 0.0
2018-Nov-05 18:00N 25°47' W 080°10'0 0.0
2018-Nov-05 17:30N 25°47' W 080°10'0 0.0
2018-Nov-05 17:00N 25°47' W 080°10'0 0.0
2018-Nov-05 16:24N 25°47' W 080°10'0 0.0
2018-Nov-05 16:03N 25°47' W 080°10'0 0.0
2018-Nov-05 16:00N 25°47' W 080°10'0 0.0
2018-Nov-05 15:29N 25°47' W 080°10'0 0.0
2018-Nov-05 15:02N 25°47' W 080°10'0 0.0
2018-Nov-05 14:53N 25°47' W 080°10'0 0.0
2018-Nov-05 14:29N 25°47' W 080°10'0 0.0
2018-Nov-05 14:02N 25°47' W 080°10'0 0.0
2018-Nov-05 13:28N 25°47' W 080°10'0 0.0
2018-Nov-05 13:01N 25°47' W 080°10'0 0.0
2018-Nov-05 12:58N 25°47' W 080°10'0 0.0
2018-Nov-05 12:28N 25°47' W 080°10'0 0.0
2018-Nov-05 11:58N 25°47' W 080°10'0 0.0
2018-Nov-05 11:30N 25°47' W 080°10'1 2.2
2018-Nov-05 11:04N 25°47' W 080°11'0 1.0
2018-Nov-05 11:00N 25°47' W 080°11'3 6.4
2018-Nov-05 10:30N 25°46' W 080°08'512.3
2018-Nov-05 10:04N 25°48' W 080°02'0 7.9
2018-Nov-05 10:00N 25°48' W 080°02'611.2
2018-Nov-05 09:30N 25°47' W 079°56'614.1
2018-Nov-05 09:04N 25°47' W 079°49'113.9
2018-Nov-05 09:01N 25°47' W 079°48'713.4
2018-Nov-05 08:30N 25°49' W 079°40'613.8
2018-Nov-05 08:03N 25°53' W 079°36'112.9
2018-Nov-05 07:59N 25°54' W 079°35'5 9.6
2018-Nov-05 07:29N 25°57' W 079°31'4 8.9
2018-Nov-05 07:03N 26°00' W 079°29'1 8.4
2018-Nov-05 06:59N 26°01' W 079°28'4 8.4
2018-Nov-05 06:30N 26°03' W 079°24'4 8.4
2018-Nov-05 06:02N 26°06' W 079°21'0 9.6
2018-Nov-05 06:01N 26°06' W 079°21'  
Track history (hours):
 
Tides and Currents Weather Stations Pressure Air Temp Water Temp Dewpoint Dewpoint Depression Visibility Wind Speed Wind Dir Waves Ship Positions

Norwegian Sky (Norway)

Operator: Norwegian Cruise Line

Last reported at 2018-Nov-13 10:00 UTC. Time now 2018-Nov-14 02:55 UTC.
Position N 23°18' W 082°12'.

Length 259 m; draft 8 m.

Type: Ship. MMSI: 308865000.

Wind from 150 at 17 knots

Barometer 1016.0 mb
Air temperature 25.0 ° C
Visibility: greater than 27.0 NM
Dewpoint 22.2 ° C
Water temperature 28.0 ° C

Date/timePositionNaut miles runAvg speedWind from/ knotsBaromVisibWave heightAir tempDewpointWater temp
2018-Nov-13 10:00N 23°18' W 082°12'15817.5 150 / 171016.027.0 25.022.228.0
2018-Nov-13 01:00N 25°00' W 080°00'96 4.0 120 / 251016.0 5.4 23.0
2018-Nov-12 01:00N 26°06' W 078°42'33 2.1 040 / 261018.0 5.4 25.0
2018-Nov-11 09:00N 26°12' W 078°06'61 7.6 070 / 171016.027.0 25.022.228.0
2018-Nov-11 01:00N 25°24' W 077°24'21 1.3 010 / 151017.0 5.4 26.0
2018-Nov-10 09:00N 25°42' W 077°36'9716.2 090 / 61015.027.0 25.022.228.0
2018-Nov-10 02:58N 26°05' W 079°21'613.6
2018-Nov-10 02:32N 26°01' W 079°26'510.5
2018-Nov-10 02:02N 25°57' W 079°30'510.3
2018-Nov-10 01:32N 25°54' W 079°34'510.0
2018-Nov-10 01:02N 25°50' W 079°38'611.1
2018-Nov-10 00:32N 25°46' W 079°43'611.1
2018-Nov-10 00:02N 25°46' W 079°49'714.6
2018-Nov-09 23:32N 25°46' W 079°57'714.0
2018-Nov-09 23:02N 25°46' W 080°05'5 9.3
2018-Nov-09 22:32N 25°47' W 080°10'0 0.2
2018-Nov-09 22:00N 25°47' W 080°10'0 0.0
2018-Nov-09 21:32N 25°47' W 080°10'0 0.0
2018-Nov-09 20:59N 25°47' W 080°10'0 0.0
2018-Nov-09 20:32N 25°47' W 080°10'0 0.0
2018-Nov-09 20:02N 25°47' W 080°10'0 0.0
2018-Nov-09 19:28N 25°47' W 080°10'0 0.0
2018-Nov-09 18:58N 25°47' W 080°10'0 0.0
2018-Nov-09 18:25N 25°47' W 080°10'0 0.0
2018-Nov-09 18:01N 25°47' W 080°10'0 0.0
2018-Nov-09 17:31N 25°47' W 080°10'0 0.0
2018-Nov-09 17:00N 25°47' W 080°10'0 0.0
2018-Nov-09 16:30N 25°47' W 080°10'0 0.0
2018-Nov-09 16:00N 25°47' W 080°10'0 0.0
2018-Nov-09 15:30N 25°47' W 080°10'0 0.0
2018-Nov-09 15:00N 25°47' W 080°10'0 0.0
2018-Nov-09 14:26N 25°47' W 080°10'0 0.0
2018-Nov-09 13:59N 25°47' W 080°10'0 0.0
2018-Nov-09 13:32N 25°47' W 080°10'0 0.0
2018-Nov-09 13:02N 25°47' W 080°10'0 0.0
2018-Nov-09 12:28N 25°47' W 080°10'0 0.0
2018-Nov-09 11:55N 25°47' W 080°10'0 0.0
2018-Nov-09 11:22N 25°47' W 080°10'0 0.0
2018-Nov-09 11:01N 25°47' W 080°10'0 1.0
2018-Nov-09 10:32N 25°46' W 080°09'5 9.5
2018-Nov-09 10:03N 25°46' W 080°04'5 9.7
2018-Nov-09 09:32N 25°47' W 079°59'4 8.9
2018-Nov-09 09:03N 25°47' W 079°54'4 8.8
2018-Nov-09 08:33N 25°48' W 079°49'4 8.5
2018-Nov-09 08:03N 25°48' W 079°44'4 8.1
2018-Nov-09 07:33N 25°49' W 079°40'4 8.4
2018-Nov-09 07:02N 25°52' W 079°37'4 8.5
2018-Nov-09 06:32N 25°55' W 079°34'4 8.5
2018-Nov-09 06:02N 25°58' W 079°30'4 8.4
2018-Nov-09 05:32N 26°01' W 079°27'4 8.5
2018-Nov-09 05:02N 26°04' W 079°24'4 8.6
2018-Nov-09 04:32N 26°07' W 079°20'4 8.4
2018-Nov-09 04:02N 26°10' W 079°16'4 7.5
2018-Nov-09 03:32N 26°11' W 079°13'2811.1
2018-Nov-09 01:00N 26°06' W 078°42'4511.2 050 / 81016.0 5.4 25.0
2018-Nov-08 21:00N 25°54' W 077°54'38 4.8 080 / 91014.027.0 26.023.2
2018-Nov-08 13:00N 26°00' W 078°36'4019.4 080 / 181016.0 5.4 26.0
2018-Nov-08 10:57N 26°08' W 079°19'920.8
2018-Nov-08 10:32N 26°01' W 079°25'1121.4
2018-Nov-08 10:02N 25°52' W 079°31'1121.5
2018-Nov-08 09:32N 25°42' W 079°35'1122.2
2018-Nov-08 09:02N 25°31' W 079°36'7142.1
2018-Nov-08 09:00N 25°24' W 079°36'   080 / 181014.027.0 25.022.228.0
2018-Nov-06 00:32N 25°16' W 080°01'1817.6
2018-Nov-05 23:30N 25°34' W 080°02'817.2
2018-Nov-05 23:03N 25°41' W 080°03'116.9
2018-Nov-05 23:01N 25°42' W 080°03'5 9.2
2018-Nov-05 22:31N 25°45' W 080°07'3 6.8
2018-Nov-05 22:03N 25°47' W 080°10'0 1.0
2018-Nov-05 22:01N 25°47' W 080°10'0 0.1
2018-Nov-05 21:26N 25°47' W 080°10'0 0.0
2018-Nov-05 21:02N 25°47' W 080°10'0 0.0
2018-Nov-05 20:59N 25°47' W 080°10'0 0.0
2018-Nov-05 20:28N 25°47' W 080°10'0 0.0
2018-Nov-05 20:01N 25°47' W 080°10'0 0.0
2018-Nov-05 19:58N 25°47' W 080°10'0 0.0
2018-Nov-05 19:28N 25°47' W 080°10'0 0.0
2018-Nov-05 18:58N 25°47' W 080°10'0 0.0
2018-Nov-05 18:22N 25°47' W 080°10'0 0.0
2018-Nov-05 18:03N 25°47' W 080°10'0 0.0
2018-Nov-05 18:00N 25°47' W 080°10'0 0.0
2018-Nov-05 17:30N 25°47' W 080°10'0 0.0
2018-Nov-05 17:00N 25°47' W 080°10'0 0.0
2018-Nov-05 16:24N 25°47' W 080°10'0 0.0
2018-Nov-05 16:03N 25°47' W 080°10'0 0.0
2018-Nov-05 16:00N 25°47' W 080°10'0 0.0
2018-Nov-05 15:29N 25°47' W 080°10'0 0.0
2018-Nov-05 15:02N 25°47' W 080°10'0 0.0
2018-Nov-05 14:53N 25°47' W 080°10'0 0.0
2018-Nov-05 14:29N 25°47' W 080°10'0 0.0
2018-Nov-05 14:02N 25°47' W 080°10'0 0.0
2018-Nov-05 13:28N 25°47' W 080°10'0 0.0
2018-Nov-05 13:01N 25°47' W 080°10'0 0.0
2018-Nov-05 12:58N 25°47' W 080°10'0 0.0
2018-Nov-05 12:28N 25°47' W 080°10'0 0.0
2018-Nov-05 11:58N 25°47' W 080°10'0 0.0
2018-Nov-05 11:30N 25°47' W 080°10'1 2.2
2018-Nov-05 11:04N 25°47' W 080°11'0 1.0
2018-Nov-05 11:00N 25°47' W 080°11'3 6.4
2018-Nov-05 10:30N 25°46' W 080°08'512.3
2018-Nov-05 10:04N 25°48' W 080°02'0 7.9
2018-Nov-05 10:00N 25°48' W 080°02'611.2
2018-Nov-05 09:30N 25°47' W 079°56'614.1
2018-Nov-05 09:04N 25°47' W 079°49'113.9
2018-Nov-05 09:01N 25°47' W 079°48'713.4
2018-Nov-05 08:30N 25°49' W 079°40'613.8
2018-Nov-05 08:03N 25°53' W 079°36'112.9
2018-Nov-05 07:59N 25°54' W 079°35'5 9.6
2018-Nov-05 07:29N 25°57' W 079°31'4 8.9
2018-Nov-05 07:03N 26°00' W 079°29'1 8.4
2018-Nov-05 06:59N 26°01' W 079°28'4 8.4
2018-Nov-05 06:30N 26°03' W 079°24'4 8.4
2018-Nov-05 06:02N 26°06' W 079°21'0 9.6
2018-Nov-05 06:01N 26°06' W 079°21'  

Dump ship's entire track history